createdAt,value
2019-02-18T00:00:38.108Z,13.27
2019-02-18T00:03:08.544Z,12.90
2019-02-18T00:05:38.155Z,12.90
2019-02-18T00:08:07.762Z,13.60
2019-02-18T00:10:37.379Z,12.77
2019-02-18T00:13:07.139Z,13.63
2019-02-18T00:15:36.761Z,13.43
2019-02-18T00:18:06.326Z,13.23
2019-02-18T00:20:36.032Z,13.67
2019-02-18T00:23:05.692Z,12.17
2019-02-18T00:25:35.245Z,13.23
2019-02-18T00:28:04.921Z,13.07
2019-02-18T00:30:34.614Z,12.43
2019-02-18T00:33:04.163Z,12.37
2019-02-18T00:35:33.729Z,14.27
2019-02-18T00:38:03.403Z,12.37
2019-02-18T00:40:33.043Z,13.00
2019-02-18T00:43:02.609Z,12.20
2019-02-18T00:45:32.134Z,12.33
2019-02-18T00:48:01.734Z,13.03
2019-02-18T00:50:31.354Z,12.30
2019-02-18T00:53:00.962Z,12.03
2019-02-18T00:55:30.588Z,11.87
2019-02-18T00:58:00.181Z,12.03
2019-02-18T01:00:29.675Z,12.70
2019-02-18T01:02:59.353Z,12.93
2019-02-18T01:05:29.013Z,13.10
2019-02-18T01:07:58.650Z,12.17
2019-02-18T01:10:28.309Z,11.87
2019-02-18T01:12:57.856Z,12.27
2019-02-18T01:15:27.447Z,12.33
2019-02-18T01:17:57.040Z,12.00
2019-02-18T01:20:26.549Z,13.23
2019-02-18T01:22:56.139Z,12.37
2019-02-18T01:25:25.778Z,12.43
2019-02-18T01:27:55.330Z,13.50
2019-02-18T01:30:24.974Z,13.53
2019-02-18T01:32:54.558Z,12.23
2019-02-18T01:35:24.192Z,11.83
2019-02-18T01:37:53.773Z,11.90
2019-02-18T01:40:23.354Z,11.73
2019-02-18T01:42:52.942Z,12.20
2019-02-18T01:45:22.536Z,13.17
2019-02-18T01:47:52.156Z,12.90
2019-02-18T01:50:21.657Z,13.37
2019-02-18T01:52:51.128Z,12.57
2019-02-18T01:55:20.732Z,12.30
2019-02-18T01:57:50.374Z,12.67
2019-02-18T02:00:19.959Z,12.80
2019-02-18T02:02:49.481Z,12.53
2019-02-18T02:05:19.210Z,11.93
2019-02-18T02:07:55.965Z,13.37
2019-02-18T02:10:20.148Z,12.20
2019-02-18T02:12:49.902Z,13.17
2019-02-18T02:15:22.595Z,11.33
2019-02-18T02:17:52.160Z,11.70
2019-02-18T02:20:21.727Z,11.93
2019-02-18T02:22:51.351Z,11.83
2019-02-18T02:25:20.929Z,13.00
2019-02-18T02:27:50.539Z,12.67
2019-02-18T02:30:20.197Z,12.77
2019-02-18T02:32:49.781Z,13.60
2019-02-18T02:35:19.281Z,12.27
2019-02-18T02:37:48.828Z,13.37
2019-02-18T02:40:18.414Z,12.13
2019-02-18T02:42:47.924Z,12.97
2019-02-18T02:45:18.625Z,12.70
2019-02-18T02:47:48.145Z,12.30
2019-02-18T02:50:17.608Z,11.87
2019-02-18T02:52:47.202Z,12.83
2019-02-18T02:55:16.747Z,11.43
2019-02-18T02:57:46.424Z,12.10
2019-02-18T03:00:16.443Z,11.77
2019-02-18T03:02:45.996Z,11.67
2019-02-18T03:05:15.739Z,11.53
2019-02-18T03:07:45.211Z,11.23
2019-02-18T03:10:14.971Z,11.70
2019-02-18T03:12:44.534Z,11.90
2019-02-18T03:15:16.640Z,12.00
2019-02-18T03:17:46.182Z,12.60
2019-02-18T03:20:15.732Z,11.53
2019-02-18T03:22:45.285Z,12.50
2019-02-18T03:25:25.412Z,12.23
2019-02-18T03:28:00.551Z,13.17
2019-02-18T03:30:39.199Z,12.40
2019-02-18T03:33:11.518Z,11.57
2019-02-18T03:35:41.031Z,13.33
2019-02-18T03:38:10.636Z,13.23
2019-02-18T03:40:40.142Z,14.00
2019-02-18T03:43:09.751Z,12.87
2019-02-18T03:45:39.332Z,12.97
2019-02-18T03:48:09.000Z,13.17
2019-02-18T03:50:38.585Z,12.37
2019-02-18T03:53:08.279Z,12.17
2019-02-18T03:55:37.961Z,12.23
2019-02-18T03:58:07.530Z,12.70
2019-02-18T04:00:37.192Z,12.20
2019-02-18T04:03:06.777Z,12.87
2019-02-18T04:05:36.460Z,12.23
2019-02-18T04:08:06.116Z,13.30
2019-02-18T04:10:35.671Z,12.47
2019-02-18T04:13:05.347Z,12.20
2019-02-18T04:15:34.954Z,12.83
2019-02-18T04:18:04.611Z,13.33
2019-02-18T04:20:34.353Z,13.03
2019-02-18T04:23:03.929Z,12.10
2019-02-18T04:25:33.492Z,12.30
2019-02-18T04:28:03.102Z,12.03
2019-02-18T04:30:32.578Z,11.80
2019-02-18T04:33:02.086Z,12.60
2019-02-18T04:35:31.695Z,12.87
2019-02-18T04:38:01.192Z,12.47
2019-02-18T04:40:30.734Z,11.93
2019-02-18T04:43:00.291Z,11.50
2019-02-18T04:45:29.868Z,12.57
2019-02-18T04:47:59.382Z,12.40
2019-02-18T04:50:28.921Z,11.73
2019-02-18T04:52:58.478Z,13.07
2019-02-18T04:55:28.062Z,11.80
2019-02-18T04:57:57.616Z,11.73
2019-02-18T05:00:27.173Z,11.93
2019-02-18T05:02:56.676Z,11.70
2019-02-18T05:05:26.271Z,11.00
2019-02-18T05:07:55.893Z,12.97
2019-02-18T05:10:25.421Z,11.90
2019-02-18T05:12:55.014Z,13.73
2019-02-18T05:15:24.648Z,12.43
2019-02-18T05:17:54.137Z,13.20
2019-02-18T05:20:23.727Z,12.83
2019-02-18T05:22:53.248Z,12.37
2019-02-18T05:25:22.888Z,12.93
2019-02-18T05:27:52.355Z,11.80
2019-02-18T05:30:21.922Z,13.00
2019-02-18T05:32:51.523Z,14.23
2019-02-18T05:35:21.071Z,12.70
2019-02-18T05:37:50.711Z,13.73
2019-02-18T05:40:20.255Z,13.50
2019-02-18T05:42:49.858Z,13.93
2019-02-18T05:45:19.411Z,14.03
2019-02-18T05:47:48.960Z,12.70
2019-02-18T05:50:18.531Z,13.53
2019-02-18T05:52:48.035Z,12.20
2019-02-18T05:55:17.649Z,13.50
2019-02-18T05:57:47.149Z,14.60
2019-02-18T06:00:17.041Z,14.30
2019-02-18T06:02:46.549Z,13.93
2019-02-18T06:05:16.200Z,14.13
2019-02-18T06:07:45.773Z,14.97
2019-02-18T06:10:17.165Z,15.20
2019-02-18T06:12:46.689Z,14.43
2019-02-18T06:15:16.181Z,15.10
2019-02-18T06:17:45.759Z,15.60
2019-02-18T06:20:15.303Z,15.23
2019-02-18T06:22:44.851Z,16.80
2019-02-18T06:25:14.487Z,15.97
2019-02-18T06:27:44.039Z,14.73
2019-02-18T06:30:13.669Z,15.73
2019-02-18T06:32:43.415Z,15.57
2019-02-18T06:35:13.039Z,15.80
2019-02-18T06:37:42.703Z,16.67
2019-02-18T06:40:12.320Z,15.20
2019-02-18T06:42:41.976Z,14.50
2019-02-18T06:45:31.064Z,14.80
2019-02-18T06:48:11.379Z,14.07
2019-02-18T06:50:41.044Z,15.07
2019-02-18T06:53:10.560Z,13.93
2019-02-18T06:55:40.062Z,15.33
2019-02-18T06:58:12.734Z,14.70
2019-02-18T07:00:46.465Z,15.03
2019-02-18T07:03:20.423Z,14.40
2019-02-18T07:05:51.614Z,15.30
2019-02-18T07:08:41.177Z,15.33
2019-02-18T07:11:15.579Z,14.63
2019-02-18T07:13:45.051Z,14.93
2019-02-18T07:16:14.684Z,15.60
2019-02-18T07:18:44.219Z,15.47
2019-02-18T07:21:13.737Z,14.67
2019-02-18T07:23:43.309Z,15.37
2019-02-18T07:26:12.876Z,15.00
2019-02-18T07:28:42.388Z,14.43
2019-02-18T07:31:12.016Z,15.93
2019-02-18T07:33:41.612Z,15.87
2019-02-18T07:36:11.101Z,15.17
2019-02-18T07:38:40.807Z,16.03
2019-02-18T07:41:10.369Z,15.63
2019-02-18T07:43:39.919Z,16.33
2019-02-18T07:46:09.486Z,17.43
2019-02-18T07:48:39.130Z,17.93
2019-02-18T07:51:08.721Z,16.57
2019-02-18T07:53:38.340Z,16.77
2019-02-18T07:56:07.996Z,14.80
2019-02-18T07:58:37.507Z,14.47
2019-02-18T08:01:07.144Z,13.93
2019-02-18T08:03:36.703Z,13.40
2019-02-18T08:06:06.353Z,12.33
2019-02-18T08:08:35.974Z,13.50
2019-02-18T08:11:06.385Z,12.67
2019-02-18T08:13:36.179Z,12.43
2019-02-18T08:16:05.838Z,12.00
2019-02-18T08:18:35.471Z,11.80
2019-02-18T08:21:05.520Z,13.13
2019-02-18T08:23:35.116Z,12.60
2019-02-18T08:26:05.387Z,12.37
2019-02-18T08:28:35.122Z,11.63
2019-02-18T08:31:04.728Z,12.23
2019-02-18T08:33:35.271Z,11.90
2019-02-18T08:36:04.947Z,12.27
2019-02-18T08:38:34.442Z,11.40
2019-02-18T08:41:04.114Z,11.70
2019-02-18T08:43:33.699Z,11.67
2019-02-18T08:46:03.290Z,12.20
2019-02-18T08:48:32.972Z,11.10
2019-02-18T08:51:02.464Z,12.07
2019-02-18T08:53:32.190Z,12.13
2019-02-18T08:56:01.772Z,12.77
2019-02-18T08:58:31.408Z,13.13
2019-02-18T09:01:02.934Z,12.50
2019-02-18T09:03:32.235Z,12.13
2019-02-18T09:06:01.743Z,11.33
2019-02-18T09:08:31.346Z,11.63
2019-02-18T09:11:01.074Z,12.07
2019-02-18T09:13:30.712Z,12.67
2019-02-18T09:16:00.639Z,12.90
2019-02-18T09:18:30.356Z,11.77
2019-02-18T09:20:59.844Z,11.47
2019-02-18T09:23:49.173Z,11.20
2019-02-18T09:26:18.752Z,11.57
2019-02-18T09:28:48.644Z,11.27
2019-02-18T09:31:19.923Z,11.47
2019-02-18T09:33:49.596Z,10.17
2019-02-18T09:36:21.357Z,10.83
2019-02-18T09:38:50.370Z,10.73
2019-02-18T09:41:20.258Z,11.27
2019-02-18T09:43:49.846Z,10.67
2019-02-18T09:46:19.507Z,10.60
2019-02-18T09:48:49.110Z,11.07
2019-02-18T09:51:18.856Z,12.07
2019-02-18T09:53:48.352Z,11.93
2019-02-18T09:56:17.885Z,12.03
2019-02-18T09:58:47.430Z,11.50
2019-02-18T10:01:17.042Z,11.37
2019-02-18T10:03:46.641Z,12.27
2019-02-18T10:06:16.276Z,11.53
2019-02-18T10:08:45.948Z,12.73
2019-02-18T10:11:15.673Z,12.47
2019-02-18T10:13:45.245Z,12.67
2019-02-18T10:16:14.841Z,11.67
2019-02-18T10:18:44.632Z,11.13
2019-02-18T10:21:14.151Z,10.77
2019-02-18T10:23:43.659Z,11.33
2019-02-18T10:26:13.328Z,10.67
2019-02-18T10:28:42.907Z,12.03
2019-02-18T10:31:12.582Z,11.37
2019-02-18T10:33:42.193Z,11.37
2019-02-18T10:36:11.771Z,11.10
2019-02-18T10:38:41.396Z,12.40
2019-02-18T10:41:10.998Z,11.60
2019-02-18T10:43:40.545Z,11.57
2019-02-18T10:46:10.236Z,11.00
2019-02-18T10:48:39.788Z,11.50
2019-02-18T10:51:09.466Z,11.93
2019-02-18T10:53:39.044Z,12.53
2019-02-18T10:56:08.668Z,12.07
2019-02-18T10:58:38.203Z,12.37
2019-02-18T11:01:08.013Z,11.77
2019-02-18T11:03:37.679Z,12.23
2019-02-18T11:06:09.237Z,11.77
2019-02-18T11:08:38.508Z,11.63
2019-02-18T11:11:16.733Z,11.83
2019-02-18T11:13:39.516Z,12.40
2019-02-18T11:16:09.049Z,11.70
2019-02-18T11:18:38.795Z,12.40
2019-02-18T11:21:08.790Z,11.50
2019-02-18T11:23:38.358Z,11.43
2019-02-18T11:26:07.999Z,11.80
2019-02-18T11:28:37.600Z,11.80
2019-02-18T11:31:07.211Z,12.30
2019-02-18T11:33:36.763Z,12.10
2019-02-18T11:36:06.356Z,12.20
2019-02-18T11:38:36.057Z,12.17
2019-02-18T11:41:05.701Z,13.03
2019-02-18T11:43:35.270Z,13.30
2019-02-18T11:46:04.956Z,13.17
2019-02-18T11:48:35.091Z,12.47
2019-02-18T11:51:04.656Z,11.90
2019-02-18T11:53:34.250Z,12.90
2019-02-18T11:56:03.948Z,13.23
2019-02-18T11:58:33.532Z,13.17
2019-02-18T12:01:03.143Z,14.97
2019-02-18T12:03:32.665Z,14.43
2019-02-18T12:06:02.193Z,13.47
2019-02-18T12:08:31.731Z,12.63
2019-02-18T12:11:01.328Z,12.80
2019-02-18T12:13:30.867Z,12.67
2019-02-18T12:16:00.505Z,13.70
2019-02-18T12:18:30.339Z,13.10
2019-02-18T12:20:59.934Z,13.23
2019-02-18T12:23:29.469Z,12.40
2019-02-18T12:25:59.944Z,13.30
2019-02-18T12:28:32.757Z,14.20
2019-02-18T12:31:02.407Z,13.03
2019-02-18T12:33:32.129Z,13.30
2019-02-18T12:36:01.740Z,12.00
2019-02-18T12:38:31.382Z,12.13
2019-02-18T12:41:01.030Z,12.70
2019-02-18T12:43:30.697Z,12.60
2019-02-18T12:46:00.937Z,12.00
2019-02-18T12:48:30.483Z,12.60
2019-02-18T12:51:00.160Z,12.90
2019-02-18T12:53:29.679Z,12.03
2019-02-18T12:55:59.378Z,12.03
2019-02-18T12:58:29.057Z,12.37
2019-02-18T13:00:59.567Z,11.27
2019-02-18T13:03:29.407Z,12.43
2019-02-18T13:05:59.031Z,12.13
2019-02-18T13:08:28.760Z,11.47
2019-02-18T13:10:58.281Z,11.93
2019-02-18T13:13:27.978Z,11.37
2019-02-18T13:15:57.487Z,11.70
2019-02-18T13:18:27.036Z,11.87
2019-02-18T13:20:56.639Z,11.70
2019-02-18T13:23:26.280Z,11.10
2019-02-18T13:25:55.803Z,12.57
2019-02-18T13:28:25.291Z,11.57
2019-02-18T13:30:54.917Z,10.13
2019-02-18T13:33:24.428Z,10.50
2019-02-18T13:35:54.408Z,10.23
2019-02-18T13:38:24.145Z,11.10
2019-02-18T13:40:53.753Z,9.80
2019-02-18T13:43:23.280Z,10.87
2019-02-18T13:45:52.793Z,10.40
2019-02-18T13:48:25.347Z,10.93
2019-02-18T13:50:55.021Z,10.27
2019-02-18T13:53:24.509Z,10.23
2019-02-18T13:55:54.091Z,11.37
2019-02-18T13:58:23.831Z,10.10
2019-02-18T14:00:53.470Z,9.97
2019-02-18T14:03:23.147Z,10.67
2019-02-18T14:05:52.709Z,11.50
2019-02-18T14:08:22.314Z,10.73
2019-02-18T14:10:52.003Z,10.73
2019-02-18T14:13:21.560Z,11.27
2019-02-18T14:15:51.867Z,10.80
2019-02-18T14:18:21.858Z,10.53
2019-02-18T14:20:51.464Z,10.37
2019-02-18T14:23:21.053Z,10.30
2019-02-18T14:25:50.633Z,10.60
2019-02-18T14:28:20.213Z,10.50
2019-02-18T14:30:49.789Z,11.00
2019-02-18T14:33:19.767Z,11.03
2019-02-18T14:35:49.429Z,10.97
2019-02-18T14:38:19.088Z,11.40
2019-02-18T14:40:48.675Z,10.47
2019-02-18T14:43:18.344Z,11.13
2019-02-18T14:45:47.966Z,11.20
2019-02-18T14:48:17.455Z,10.27
2019-02-18T14:50:47.204Z,10.57
2019-02-18T14:53:16.760Z,10.70
2019-02-18T14:55:46.312Z,10.33
2019-02-18T14:58:16.082Z,11.27
2019-02-18T15:00:45.844Z,11.17
2019-02-18T15:03:15.353Z,11.13
2019-02-18T15:05:45.127Z,10.70
2019-02-18T15:08:14.782Z,10.73
2019-02-18T15:10:44.421Z,9.97
2019-02-18T15:13:13.976Z,10.77
2019-02-18T15:15:44.272Z,9.83
2019-02-18T15:18:13.856Z,11.47
2019-02-18T15:20:43.362Z,11.23
2019-02-18T15:23:12.885Z,11.10
2019-02-18T15:25:42.562Z,10.33
2019-02-18T15:28:12.167Z,10.13
2019-02-18T15:30:41.991Z,10.73
2019-02-18T15:33:11.696Z,10.20
2019-02-18T15:35:41.247Z,10.20
2019-02-18T15:38:10.960Z,10.40
2019-02-18T15:40:40.616Z,9.97
2019-02-18T15:43:10.371Z,9.67
2019-02-18T15:45:40.131Z,9.83
2019-02-18T15:48:09.787Z,10.67
2019-02-18T15:50:39.353Z,10.83
2019-02-18T15:53:08.990Z,10.97
2019-02-18T15:55:39.344Z,12.07
2019-02-18T15:58:09.014Z,11.17
2019-02-18T16:00:38.845Z,12.60
2019-02-18T16:03:08.514Z,11.53
2019-02-18T16:05:38.120Z,11.10
2019-02-18T16:08:07.834Z,11.73
2019-02-18T16:10:37.403Z,11.00
2019-02-18T16:13:07.215Z,11.33
2019-02-18T16:15:36.936Z,11.00
2019-02-18T16:18:06.608Z,11.50
2019-02-18T16:20:36.157Z,10.50
2019-02-18T16:23:05.775Z,11.27
2019-02-18T16:25:35.776Z,10.47
2019-02-18T16:28:05.832Z,10.87
2019-02-18T16:30:35.512Z,10.70
2019-02-18T16:33:05.147Z,10.97
2019-02-18T16:35:35.056Z,11.50
2019-02-18T16:38:04.658Z,10.67
2019-02-18T16:40:34.651Z,11.63
2019-02-18T16:43:04.328Z,11.30
2019-02-18T16:45:33.924Z,10.10
2019-02-18T16:48:04.063Z,10.33
2019-02-18T16:50:33.612Z,10.53
2019-02-18T16:53:03.292Z,11.40
2019-02-18T16:55:33.117Z,11.17
2019-02-18T16:58:02.688Z,12.00
2019-02-18T17:00:33.624Z,11.50
2019-02-18T17:03:03.309Z,11.07
2019-02-18T17:05:32.886Z,11.03
2019-02-18T17:08:02.426Z,10.33
2019-02-18T17:10:32.521Z,10.57
2019-02-18T17:13:07.922Z,10.13
2019-02-18T17:15:33.297Z,10.67
2019-02-18T17:18:02.775Z,10.57
2019-02-18T17:20:32.415Z,10.83
2019-02-18T17:23:02.023Z,10.97
2019-02-18T17:25:31.825Z,10.93
2019-02-18T17:28:01.399Z,10.97
2019-02-18T17:30:30.992Z,11.13
2019-02-18T17:33:00.523Z,12.10
2019-02-18T17:35:30.078Z,12.93
2019-02-18T17:37:59.744Z,12.23
2019-02-18T17:40:29.541Z,13.37
2019-02-18T17:42:59.252Z,13.30
2019-02-18T17:45:28.962Z,14.13
2019-02-18T17:47:58.591Z,13.10
2019-02-18T17:50:28.281Z,13.00
2019-02-18T17:52:58.228Z,13.93
2019-02-18T17:55:27.855Z,14.07
2019-02-18T17:57:57.439Z,14.50
2019-02-18T18:00:33.229Z,16.33
2019-02-18T18:03:03.007Z,15.03
2019-02-18T18:05:39.374Z,15.27
2019-02-18T18:08:09.084Z,16.27
2019-02-18T18:10:38.630Z,15.60
2019-02-18T18:13:10.418Z,15.07
2019-02-18T18:15:39.951Z,16.93
2019-02-18T18:18:09.505Z,17.40
2019-02-18T18:20:39.504Z,16.03
2019-02-18T18:23:09.071Z,15.90
2019-02-18T18:25:38.855Z,15.93
2019-02-18T18:28:08.408Z,16.90
2019-02-18T18:30:38.106Z,15.77
2019-02-18T18:33:07.834Z,16.13
2019-02-18T18:35:37.686Z,15.10
2019-02-18T18:38:07.344Z,15.10
2019-02-18T18:40:36.907Z,15.23
2019-02-18T18:43:06.660Z,15.70
2019-02-18T18:45:36.317Z,14.90
2019-02-18T18:48:06.001Z,14.83
2019-02-18T18:50:35.709Z,15.23
2019-02-18T18:53:05.296Z,14.47
2019-02-18T18:55:35.047Z,15.00
2019-02-18T18:58:04.992Z,14.37
2019-02-18T19:00:34.547Z,14.23
2019-02-18T19:03:04.515Z,15.13
2019-02-18T19:05:34.101Z,15.47
2019-02-18T19:08:03.726Z,17.27
2019-02-18T19:10:33.314Z,15.50
2019-02-18T19:13:02.919Z,15.63
2019-02-18T19:15:32.478Z,23.57
2019-02-18T19:18:02.127Z,21.63
2019-02-18T19:20:31.790Z,21.80
2019-02-18T19:23:01.408Z,18.80
2019-02-18T19:25:31.007Z,18.33
2019-02-18T19:28:00.539Z,17.27
2019-02-18T19:30:32.363Z,15.73
2019-02-18T19:33:02.068Z,15.33
2019-02-18T19:35:31.582Z,15.23
2019-02-18T19:38:01.076Z,14.70
2019-02-18T19:40:30.618Z,14.50
2019-02-18T19:43:00.223Z,14.63
2019-02-18T19:45:29.817Z,15.00
2019-02-18T19:47:59.489Z,14.87
2019-02-18T19:50:29.040Z,15.10
2019-02-18T19:52:58.663Z,14.80
2019-02-18T19:55:28.214Z,15.93
2019-02-18T19:57:58.213Z,16.93
2019-02-18T20:00:27.763Z,17.60
2019-02-18T20:02:57.423Z,15.33
2019-02-18T20:05:27.051Z,16.53
2019-02-18T20:07:56.668Z,16.43
2019-02-18T20:10:26.302Z,15.40
2019-02-18T20:12:56.136Z,15.93
2019-02-18T20:15:25.616Z,16.03
2019-02-18T20:17:55.228Z,15.57
2019-02-18T20:20:24.840Z,14.60
2019-02-18T20:22:54.404Z,14.50
2019-02-18T20:25:24.183Z,15.70
2019-02-18T20:27:53.730Z,14.97
2019-02-18T20:30:23.307Z,14.47
2019-02-18T20:32:52.932Z,15.13
2019-02-18T20:35:22.483Z,15.30
2019-02-18T20:37:52.141Z,14.63
2019-02-18T20:40:21.988Z,16.23
2019-02-18T20:42:51.573Z,14.50
2019-02-18T20:45:21.223Z,15.63
2019-02-18T20:47:50.795Z,14.63
2019-02-18T20:50:20.463Z,13.37
2019-02-18T20:52:50.056Z,13.37
2019-02-18T20:55:20.030Z,13.10
2019-02-18T20:57:49.665Z,12.33
2019-02-18T21:00:20.344Z,12.47
2019-02-18T21:02:50.045Z,12.23
2019-02-18T21:05:19.663Z,11.97
2019-02-18T21:07:49.260Z,11.30
2019-02-18T21:10:21.375Z,10.37
2019-02-18T21:12:50.989Z,10.53
2019-02-18T21:15:20.564Z,10.73
2019-02-18T21:17:50.061Z,10.30
2019-02-18T21:20:19.814Z,10.57
2019-02-18T21:22:49.603Z,9.97
2019-02-18T21:25:19.212Z,10.07
2019-02-18T21:27:48.839Z,10.70
2019-02-18T21:30:18.947Z,10.33
2019-02-18T21:32:48.607Z,10.27
2019-02-18T21:35:18.172Z,10.27
2019-02-18T21:37:48.063Z,10.00
2019-02-18T21:40:17.604Z,9.67
2019-02-18T21:42:47.273Z,10.43
2019-02-18T21:45:17.112Z,9.73
2019-02-18T21:47:46.701Z,10.43
2019-02-18T21:50:16.349Z,10.23
2019-02-18T21:52:45.954Z,10.43
2019-02-18T21:55:15.608Z,10.50
2019-02-18T21:57:45.414Z,10.07
2019-02-18T22:00:23.062Z,9.90
2019-02-18T22:02:56.937Z,10.27
2019-02-18T22:05:34.218Z,10.30
2019-02-18T22:08:03.843Z,10.37
2019-02-18T22:10:33.445Z,11.30
2019-02-18T22:13:05.706Z,10.73
2019-02-18T22:15:46.625Z,10.10
2019-02-18T22:18:16.816Z,11.37
2019-02-18T22:20:46.375Z,10.73
2019-02-18T22:23:15.987Z,11.30
2019-02-18T22:25:45.527Z,11.27
2019-02-18T22:28:15.044Z,10.13
2019-02-18T22:30:44.535Z,10.50
2019-02-18T22:33:14.245Z,11.10
2019-02-18T22:35:43.761Z,10.17
2019-02-18T22:38:13.407Z,10.27
2019-02-18T22:40:42.929Z,11.13
2019-02-18T22:43:12.516Z,9.97
2019-02-18T22:45:42.346Z,11.67
2019-02-18T22:48:11.840Z,14.20
2019-02-18T22:50:41.347Z,17.40
2019-02-18T22:53:10.877Z,18.43
2019-02-18T22:55:40.506Z,17.47
2019-02-18T22:58:10.127Z,12.70
2019-02-18T23:00:57.046Z,13.20
2019-02-18T23:03:26.730Z,10.10
2019-02-18T23:05:56.358Z,9.30
2019-02-18T23:08:25.990Z,8.50
2019-02-18T23:10:55.627Z,8.80
2019-02-18T23:13:25.291Z,7.67
2019-02-18T23:15:56.437Z,7.63
2019-02-18T23:18:26.403Z,8.37
2019-02-18T23:20:55.967Z,8.23
2019-02-18T23:23:25.673Z,8.50
2019-02-18T23:25:55.260Z,8.90
2019-02-18T23:28:24.918Z,8.63
2019-02-18T23:30:54.523Z,8.90
2019-02-18T23:33:24.166Z,8.20
2019-02-18T23:35:53.807Z,8.23
2019-02-18T23:38:23.323Z,8.43
2019-02-18T23:40:52.871Z,8.47
2019-02-18T23:43:22.467Z,8.03
2019-02-18T23:45:51.976Z,8.27
2019-02-18T23:48:21.540Z,8.77
2019-02-18T23:50:51.204Z,8.90
2019-02-18T23:53:20.725Z,8.97
2019-02-18T23:55:50.361Z,8.60
2019-02-18T23:58:19.871Z,9.10
